YHE weather

Hope Airport
Hope, British Columbia, Canada

Public forecast

Using degrees Celsius for public forecast. Weather courtesy of forecast.io.

METAR (pilot weather report)

Retrieved 2019/05/24 04:00 UTC (22 minutes ago):

CYHE 240400Z AUTO 10004KT 9SM BKN110 OVC140 17/12 A2985 RMK SLP108 DENSITY ALT 500FT

TAF (pilot weather forecast)

Forecast is more than 12 hours old.

Closest forecast is Abbotsford Airport, 39.6 nm (73.4 km) WSW. Retrieved 2019/05/23 00:42 UTC (1 day ago):

TAF CYXX 232339Z 2400/2424 20008KT P6SM FEW100 SCT150 FM240500 22008KT P6SM SCT080 BKN140 FM241000 22006KT P6SM FEW040 OVC070 FM241400 20005KT P6SM -RA SCT020 OVC040 FM242300 26005KT P6SM BKN040 RMK NXT FCST BY 240600Z